createdAt,value
2019-03-01T00:00:07.251Z,62.13
2019-03-01T00:02:35.260Z,64.63
2019-03-01T00:05:16.498Z,68.67
2019-03-01T00:08:08.161Z,71.47
2019-03-01T00:10:48.975Z,64.30
2019-03-01T00:13:39.181Z,62.00
2019-03-01T00:16:14.371Z,63.17
2019-03-01T00:19:04.530Z,61.13
2019-03-01T00:21:45.418Z,58.03
2019-03-01T00:24:20.544Z,56.30
2019-03-01T00:27:00.986Z,66.17
2019-03-01T00:29:35.073Z,56.57
2019-03-01T00:32:16.547Z,59.63
2019-03-01T00:35:00.702Z,61.50
2019-03-01T00:38:03.030Z,60.47
2019-03-01T00:40:47.771Z,62.23
2019-03-01T00:43:47.255Z,64.10
2019-03-01T00:46:17.269Z,59.63
2019-03-01T00:48:45.272Z,62.97
2019-03-01T00:51:13.235Z,67.80
2019-03-01T00:53:41.231Z,59.97
2019-03-01T00:56:09.341Z,56.73
2019-03-01T00:58:37.279Z,54.53
2019-03-01T01:01:05.288Z,63.47
2019-03-01T01:03:33.273Z,63.83
2019-03-01T01:06:01.277Z,57.43
2019-03-01T01:08:29.275Z,56.80
2019-03-01T01:10:57.348Z,61.70
2019-03-01T01:13:25.848Z,56.47
2019-03-01T01:15:54.100Z,75.10
2019-03-01T01:18:22.090Z,60.77
2019-03-01T01:20:50.071Z,66.93
2019-03-01T01:23:18.128Z,66.57
2019-03-01T01:25:46.115Z,62.87
2019-03-01T01:28:14.144Z,71.40
2019-03-01T01:30:42.157Z,63.27
2019-03-01T01:33:10.222Z,67.07
2019-03-01T01:35:38.260Z,70.63
2019-03-01T01:38:06.303Z,66.47
2019-03-01T01:40:34.294Z,71.83
2019-03-01T01:43:02.400Z,69.53
2019-03-01T01:45:30.408Z,71.00
2019-03-01T01:47:58.457Z,69.70
2019-03-01T01:50:26.490Z,65.87
2019-03-01T01:52:54.559Z,65.87
2019-03-01T01:55:22.540Z,69.63
2019-03-01T01:57:50.703Z,76.30
2019-03-01T02:00:18.698Z,81.37
2019-03-01T02:02:46.775Z,75.20
2019-03-01T02:05:14.799Z,77.83
2019-03-01T02:07:42.827Z,79.07
2019-03-01T02:10:10.780Z,79.20
2019-03-01T02:12:40.060Z,84.83
2019-03-01T02:15:09.301Z,79.07
2019-03-01T02:17:37.298Z,85.07
2019-03-01T02:20:05.562Z,79.97
2019-03-01T02:22:33.586Z,84.27
2019-03-01T02:25:01.706Z,85.97
2019-03-01T02:27:30.072Z,81.67
2019-03-01T02:29:58.563Z,88.67
2019-03-01T02:32:31.478Z,83.07
2019-03-01T02:34:59.556Z,83.83
2019-03-01T02:37:27.570Z,81.57
2019-03-01T02:39:55.668Z,87.93
2019-03-01T02:42:23.782Z,92.23
2019-03-01T02:44:51.749Z,94.43
2019-03-01T02:47:19.772Z,83.73
2019-03-01T02:49:47.829Z,84.20
2019-03-01T02:52:15.893Z,88.30
2019-03-01T02:54:43.906Z,93.73
2019-03-01T02:57:11.930Z,95.43
2019-03-01T02:59:39.913Z,88.40
2019-03-01T03:02:07.921Z,86.33
2019-03-01T03:04:35.963Z,85.70
2019-03-01T03:07:12.818Z,96.13
2019-03-01T03:09:40.808Z,101.23
2019-03-01T03:12:08.869Z,98.60
2019-03-01T03:14:36.855Z,102.67
2019-03-01T03:17:04.964Z,101.40
2019-03-01T03:19:33.442Z,95.33
2019-03-01T03:22:01.473Z,96.47
2019-03-01T03:24:29.460Z,95.07
2019-03-01T03:26:57.431Z,103.13
2019-03-01T03:29:25.493Z,94.37
2019-03-01T03:31:53.543Z,95.30
2019-03-01T03:34:21.648Z,107.07
2019-03-01T03:36:49.728Z,108.73
2019-03-01T03:39:17.774Z,95.77
2019-03-01T03:41:45.758Z,101.83
2019-03-01T03:44:13.784Z,107.67
2019-03-01T03:46:41.819Z,94.27
2019-03-01T03:49:09.908Z,110.83
2019-03-01T03:51:38.074Z,97.47
2019-03-01T03:54:06.121Z,107.73
2019-03-01T03:56:34.122Z,100.40
2019-03-01T03:59:02.165Z,112.33
2019-03-01T04:01:30.268Z,108.87
2019-03-01T04:03:58.204Z,97.67
2019-03-01T04:06:26.257Z,108.40
2019-03-01T04:08:54.283Z,104.83
2019-03-01T04:11:22.335Z,115.93
2019-03-01T04:13:50.691Z,112.93
2019-03-01T04:16:18.712Z,101.23
2019-03-01T04:18:48.779Z,99.57
2019-03-01T04:21:16.839Z,105.50
2019-03-01T04:23:44.913Z,107.67
2019-03-01T04:26:12.971Z,105.13
2019-03-01T04:28:41.018Z,107.03
2019-03-01T04:31:09.100Z,101.73
2019-03-01T04:33:37.275Z,94.27
2019-03-01T04:36:05.267Z,102.03
2019-03-01T04:38:33.495Z,118.13
2019-03-01T04:41:01.489Z,94.13
2019-03-01T04:43:29.608Z,95.57
2019-03-01T04:45:57.769Z,99.87
2019-03-01T04:48:25.799Z,109.17
2019-03-01T04:50:53.793Z,99.20
2019-03-01T04:53:21.850Z,105.67
2019-03-01T04:55:49.994Z,101.57
2019-03-01T04:58:18.023Z,106.33
2019-03-01T05:00:46.220Z,109.03
2019-03-01T05:03:14.302Z,114.60
2019-03-01T05:05:44.136Z,116.07
2019-03-01T05:08:12.119Z,115.90
2019-03-01T05:10:40.120Z,121.93
2019-03-01T05:13:08.170Z,119.50
2019-03-01T05:15:36.308Z,107.33
2019-03-01T05:18:04.550Z,107.77
2019-03-01T05:20:32.820Z,107.50
2019-03-01T05:23:00.926Z,115.73
2019-03-01T05:25:28.969Z,118.73
2019-03-01T05:27:56.991Z,124.07
2019-03-01T05:30:24.989Z,112.90
2019-03-01T05:32:52.978Z,115.10
2019-03-01T05:35:21.017Z,116.00
2019-03-01T05:37:49.208Z,113.30
2019-03-01T05:40:17.221Z,109.57
2019-03-01T05:42:45.249Z,111.43
2019-03-01T05:45:14.483Z,114.10
2019-03-01T05:47:42.573Z,102.50
2019-03-01T05:50:11.200Z,119.27
2019-03-01T05:52:39.214Z,124.33
2019-03-01T05:55:07.412Z,120.57
2019-03-01T05:57:35.333Z,118.70
2019-03-01T06:00:04.733Z,118.30
2019-03-01T06:02:54.795Z,120.53
2019-03-01T06:05:25.756Z,106.67
2019-03-01T06:08:24.792Z,116.83
2019-03-01T06:11:04.510Z,118.70
2019-03-01T06:14:06.833Z,124.47
2019-03-01T06:17:04.026Z,122.97
2019-03-01T06:19:41.649Z,121.90
2019-03-01T06:22:25.314Z,117.47
2019-03-01T06:25:15.354Z,134.78
2019-03-01T06:27:59.744Z,124.93
2019-03-01T06:30:34.999Z,115.63
2019-03-01T06:33:22.176Z,120.43
2019-03-01T06:35:56.830Z,119.77
2019-03-01T06:39:13.294Z,124.83
2019-03-01T06:41:44.131Z,127.10
2019-03-01T06:44:28.271Z,126.30
2019-03-01T06:47:15.545Z,126.37
2019-03-01T06:50:07.916Z,127.43
2019-03-01T06:52:35.984Z,133.40
2019-03-01T06:55:03.982Z,132.23
2019-03-01T06:57:32.543Z,122.83
2019-03-01T07:00:00.662Z,126.77
2019-03-01T07:02:44.467Z,129.27
2019-03-01T07:05:12.596Z,125.80
2019-03-01T07:07:40.592Z,124.37
2019-03-01T07:10:08.722Z,132.43
2019-03-01T07:12:36.833Z,130.60
2019-03-01T07:15:08.781Z,129.57
2019-03-01T07:17:36.866Z,128.00
2019-03-01T07:20:04.943Z,134.27
2019-03-01T07:22:33.061Z,126.00
2019-03-01T07:25:01.128Z,138.60
2019-03-01T07:27:29.183Z,123.87
2019-03-01T07:29:57.444Z,130.47
2019-03-01T07:32:25.488Z,132.57
2019-03-01T07:34:53.598Z,132.43
2019-03-01T07:37:22.000Z,143.10
2019-03-01T07:39:50.076Z,141.47
2019-03-01T07:42:21.148Z,132.87
2019-03-01T07:44:49.198Z,140.77
2019-03-01T07:47:17.300Z,141.20
2019-03-01T07:49:45.316Z,146.20
2019-03-01T07:52:13.345Z,154.53
2019-03-01T07:54:41.367Z,149.27
2019-03-01T07:57:11.528Z,137.90
2019-03-01T07:59:39.489Z,138.70
2019-03-01T08:02:07.535Z,141.37
2019-03-01T08:04:35.539Z,146.17
2019-03-01T08:07:03.554Z,139.60
2019-03-01T08:09:31.621Z,150.73
2019-03-01T08:11:59.730Z,155.83
2019-03-01T08:14:28.003Z,152.27
2019-03-01T08:16:57.542Z,142.27
2019-03-01T08:19:25.688Z,154.37
2019-03-01T08:21:54.231Z,143.63
2019-03-01T08:24:22.245Z,142.33
2019-03-01T08:26:51.526Z,152.10
2019-03-01T08:29:19.569Z,146.07
2019-03-01T08:31:47.539Z,142.17
2019-03-01T08:34:17.916Z,139.67
2019-03-01T08:36:46.481Z,142.83
2019-03-01T08:39:14.761Z,141.80
2019-03-01T08:41:42.935Z,136.73
2019-03-01T08:44:11.927Z,137.17
2019-03-01T08:46:41.943Z,141.70
2019-03-01T08:49:11.513Z,143.20
2019-03-01T08:51:39.617Z,141.57
2019-03-01T08:54:09.641Z,154.03
2019-03-01T08:56:38.842Z,134.53
2019-03-01T08:59:06.951Z,136.03
2019-03-01T09:01:35.074Z,136.13
2019-03-01T09:04:04.785Z,131.77
2019-03-01T09:06:32.869Z,141.37
2019-03-01T09:09:00.906Z,145.87
2019-03-01T09:11:30.571Z,142.73
2019-03-01T09:13:58.531Z,146.40
2019-03-01T09:16:26.611Z,154.70
2019-03-01T09:18:54.647Z,147.17
2019-03-01T09:21:23.802Z,159.03
2019-03-01T09:23:54.755Z,150.93
2019-03-01T09:26:21.566Z,155.13
2019-03-01T09:28:49.625Z,150.60
2019-03-01T09:31:17.843Z,151.10
2019-03-01T09:33:45.926Z,163.00
2019-03-01T09:36:25.699Z,171.30
2019-03-01T09:38:59.976Z,157.53
2019-03-01T09:41:40.534Z,168.13
2019-03-01T09:44:12.650Z,166.37
2019-03-01T09:46:43.293Z,163.87
2019-03-01T09:49:13.251Z,176.67
2019-03-01T09:51:43.599Z,166.27
2019-03-01T09:54:13.454Z,164.60
2019-03-01T09:56:42.693Z,162.87
2019-03-01T09:59:11.985Z,183.63
2019-03-01T10:01:44.147Z,170.23
2019-03-01T10:04:13.351Z,172.13
2019-03-01T10:06:42.407Z,168.17
2019-03-01T10:09:12.257Z,180.17
2019-03-01T10:11:41.273Z,164.50
2019-03-01T10:14:09.372Z,163.20
2019-03-01T10:16:37.578Z,172.00
2019-03-01T10:19:05.632Z,152.80
2019-03-01T10:21:33.973Z,158.57
2019-03-01T10:24:02.019Z,164.30
2019-03-01T10:26:30.100Z,157.93
2019-03-01T10:28:58.097Z,154.03
2019-03-01T10:31:26.154Z,156.27
2019-03-01T10:33:54.204Z,158.67
2019-03-01T10:36:22.726Z,154.97
2019-03-01T10:38:50.815Z,149.97
2019-03-01T10:41:19.263Z,159.17
2019-03-01T10:43:47.265Z,147.40
2019-03-01T10:46:15.370Z,156.07
2019-03-01T10:48:43.721Z,143.97
2019-03-01T10:51:12.545Z,146.37
2019-03-01T10:53:41.194Z,147.63
2019-03-01T10:56:09.167Z,143.47
2019-03-01T10:58:37.241Z,150.67
2019-03-01T11:01:05.251Z,138.23
2019-03-01T11:03:33.279Z,140.17
2019-03-01T11:06:01.291Z,131.13
2019-03-01T11:08:30.914Z,144.17
2019-03-01T11:10:58.997Z,142.20
2019-03-01T11:13:27.039Z,136.40
2019-03-01T11:15:57.298Z,134.83
2019-03-01T11:18:25.348Z,139.43
2019-03-01T11:20:53.422Z,130.63
2019-03-01T11:23:21.447Z,129.03
2019-03-01T11:25:49.890Z,127.17
2019-03-01T11:28:18.320Z,113.57
2019-03-01T11:30:47.368Z,116.83
2019-03-01T11:33:15.528Z,112.53
2019-03-01T11:35:43.575Z,113.33
2019-03-01T11:38:11.609Z,120.00
2019-03-01T11:40:39.675Z,117.27
2019-03-01T11:43:07.798Z,117.33
2019-03-01T11:45:35.921Z,120.90
2019-03-01T11:48:04.517Z,118.13
2019-03-01T11:50:32.602Z,123.50
2019-03-01T11:53:00.610Z,130.27
2019-03-01T11:55:28.670Z,132.27
2019-03-01T11:57:56.887Z,142.73
2019-03-01T12:00:25.112Z,141.17
2019-03-01T12:02:53.162Z,123.23
2019-03-01T12:05:21.385Z,112.97
2019-03-01T12:07:49.549Z,130.27
2019-03-01T12:10:21.325Z,124.63
2019-03-01T12:12:49.412Z,128.07
2019-03-01T12:15:17.562Z,111.60
2019-03-01T12:17:45.646Z,106.10
2019-03-01T12:20:14.448Z,106.47
2019-03-01T12:22:42.586Z,120.33
2019-03-01T12:25:11.348Z,117.27
2019-03-01T12:27:39.408Z,115.50
2019-03-01T12:30:08.883Z,118.70
2019-03-01T12:32:36.938Z,113.10
2019-03-01T12:35:05.985Z,119.10
2019-03-01T12:37:34.007Z,111.47
2019-03-01T12:40:02.909Z,98.87
2019-03-01T12:42:30.992Z,93.40
2019-03-01T12:44:59.022Z,89.83
2019-03-01T12:47:27.103Z,87.70
2019-03-01T12:49:55.119Z,86.53
2019-03-01T12:52:23.158Z,77.37
2019-03-01T12:54:51.280Z,89.33
2019-03-01T12:57:19.278Z,80.40
2019-03-01T12:59:47.266Z,80.97
2019-03-01T13:02:15.250Z,81.53
2019-03-01T13:04:44.500Z,73.83
2019-03-01T13:07:13.204Z,77.40
2019-03-01T13:09:42.330Z,75.90
2019-03-01T13:12:10.386Z,73.33
2019-03-01T13:14:39.529Z,69.63
2019-03-01T13:17:10.175Z,69.20
2019-03-01T13:19:38.305Z,67.17
2019-03-01T13:22:06.439Z,76.27
2019-03-01T13:24:35.156Z,72.47
2019-03-01T13:27:05.874Z,82.90
2019-03-01T13:29:35.065Z,68.03
2019-03-01T13:32:03.918Z,70.97
2019-03-01T13:34:31.965Z,75.83
2019-03-01T13:37:08.869Z,80.53
2019-03-01T13:39:38.211Z,73.83
2019-03-01T13:42:06.323Z,75.20
2019-03-01T13:44:36.161Z,72.90
2019-03-01T13:47:05.355Z,71.77
2019-03-01T13:49:34.367Z,80.17
2019-03-01T13:52:02.649Z,77.47
2019-03-01T13:54:31.468Z,66.83
2019-03-01T13:57:00.243Z,66.93
2019-03-01T13:59:28.435Z,56.00
2019-03-01T14:01:57.631Z,55.73
2019-03-01T14:04:25.735Z,54.67
2019-03-01T14:06:53.879Z,50.10
2019-03-01T14:09:27.101Z,46.27
2019-03-01T14:11:55.946Z,40.97
2019-03-01T14:14:27.054Z,42.93
2019-03-01T14:16:53.950Z,37.37
2019-03-01T14:19:22.043Z,35.33
2019-03-01T14:21:51.235Z,31.33
2019-03-01T14:24:20.211Z,38.33
2019-03-01T14:26:50.580Z,39.40
2019-03-01T14:29:19.051Z,37.47
2019-03-01T14:31:47.716Z,32.43
2019-03-01T14:34:17.721Z,33.10
2019-03-01T14:36:45.647Z,31.37
2019-03-01T14:39:45.247Z,27.77
2019-03-01T14:42:12.917Z,24.70
2019-03-01T14:44:40.999Z,26.53
2019-03-01T14:47:10.386Z,23.23
2019-03-01T14:49:38.470Z,23.90
2019-03-01T14:52:08.840Z,22.10
2019-03-01T14:54:37.877Z,23.50
2019-03-01T14:57:10.108Z,24.87
2019-03-01T14:59:47.403Z,23.70
2019-03-01T15:02:18.395Z,21.20
2019-03-01T15:04:46.460Z,18.67
2019-03-01T15:07:14.622Z,26.10
2019-03-01T15:09:45.835Z,18.80
2019-03-01T15:12:19.887Z,26.93
2019-03-01T15:14:49.612Z,18.77
2019-03-01T15:17:14.819Z,21.77
2019-03-01T15:19:44.548Z,24.10
2019-03-01T15:22:14.034Z,20.30
2019-03-01T15:24:42.248Z,21.80
2019-03-01T15:27:10.317Z,21.17
2019-03-01T15:29:45.584Z,29.10
2019-03-01T15:32:13.657Z,20.93
2019-03-01T15:34:41.720Z,19.37
2019-03-01T15:37:09.806Z,21.17
2019-03-01T15:39:38.667Z,24.30
2019-03-01T15:42:06.757Z,19.93
2019-03-01T15:44:36.537Z,20.53
2019-03-01T15:47:04.669Z,21.30
2019-03-01T15:49:33.462Z,20.93
2019-03-01T15:52:02.055Z,24.57
2019-03-01T15:54:32.462Z,22.10
2019-03-01T15:56:59.765Z,18.10
2019-03-01T15:59:27.845Z,21.87
2019-03-01T16:01:56.328Z,15.73
2019-03-01T16:04:24.373Z,18.13
2019-03-01T16:06:56.383Z,16.67
2019-03-01T16:09:25.115Z,13.20
2019-03-01T16:11:56.473Z,11.67
2019-03-01T16:14:25.063Z,10.37
2019-03-01T16:16:54.340Z,10.37
2019-03-01T16:19:22.322Z,10.40
2019-03-01T16:21:50.354Z,12.60
2019-03-01T16:24:25.726Z,9.40
2019-03-01T16:26:49.230Z,11.73
2019-03-01T16:29:17.404Z,11.53
2019-03-01T16:31:45.421Z,8.88
2019-03-01T16:34:13.517Z,9.60
2019-03-01T16:36:44.141Z,11.00
2019-03-01T16:39:13.632Z,7.70
2019-03-01T16:41:42.937Z,10.27
2019-03-01T16:44:11.764Z,9.17
2019-03-01T16:46:40.242Z,11.33
2019-03-01T16:49:08.278Z,9.50
2019-03-01T16:51:36.406Z,9.30
2019-03-01T16:54:04.988Z,9.17
2019-03-01T16:56:34.551Z,11.10
2019-03-01T16:59:03.739Z,10.60
2019-03-01T17:01:32.600Z,10.73
2019-03-01T17:04:01.290Z,9.47
2019-03-01T17:06:29.312Z,10.67
2019-03-01T17:08:57.459Z,9.57
2019-03-01T17:11:25.535Z,7.77
2019-03-01T17:13:55.714Z,11.13
2019-03-01T17:16:24.587Z,9.33
2019-03-01T17:18:52.636Z,11.50
2019-03-01T17:21:20.706Z,8.67
2019-03-01T17:23:48.824Z,10.47
2019-03-01T17:26:16.971Z,10.63
2019-03-01T17:28:45.017Z,10.83
2019-03-01T17:31:13.056Z,10.60
2019-03-01T17:33:41.134Z,9.93
2019-03-01T17:36:09.095Z,10.00
2019-03-01T17:38:43.564Z,14.03
2019-03-01T17:41:09.810Z,11.40
2019-03-01T17:43:36.763Z,11.27
2019-03-01T17:46:06.145Z,12.23
2019-03-01T17:48:36.490Z,9.97
2019-03-01T17:54:15.428Z,12.80
2019-03-01T17:56:43.550Z,10.27
2019-03-01T17:59:11.836Z,9.03
2019-03-01T18:01:41.010Z,8.18
2019-03-01T18:04:10.284Z,12.13
2019-03-01T18:06:38.397Z,8.80
2019-03-01T18:09:07.217Z,8.33
2019-03-01T18:11:35.488Z,12.35
2019-03-01T18:14:03.563Z,11.47
2019-03-01T18:16:31.730Z,10.63
2019-03-01T18:18:59.719Z,11.33
2019-03-01T18:21:27.768Z,7.63
2019-03-01T18:23:55.854Z,9.40
2019-03-01T18:26:24.003Z,11.00
2019-03-01T18:28:52.617Z,9.97
2019-03-01T18:31:20.726Z,10.70
2019-03-01T18:33:53.730Z,10.53
2019-03-01T18:36:20.914Z,14.93
2019-03-01T18:38:48.986Z,9.87
2019-03-01T18:41:17.160Z,24.63
2019-03-01T18:43:45.758Z,11.67
2019-03-01T18:46:18.307Z,8.50
2019-03-01T18:48:44.762Z,9.00
2019-03-01T18:51:13.195Z,9.57
2019-03-01T18:53:41.311Z,10.00
2019-03-01T18:56:09.399Z,9.27
2019-03-01T18:58:37.456Z,10.20
2019-03-01T19:01:07.763Z,8.80
2019-03-01T19:03:36.614Z,12.80
2019-03-01T19:06:05.884Z,7.40
2019-03-01T19:08:36.429Z,9.40
2019-03-01T19:11:03.874Z,10.20
2019-03-01T19:13:32.027Z,13.47
2019-03-01T19:16:00.974Z,11.70
2019-03-01T19:18:29.155Z,8.20
2019-03-01T19:20:58.467Z,8.73
2019-03-01T19:23:29.343Z,10.10
2019-03-01T19:25:57.889Z,7.93
2019-03-01T19:28:26.860Z,11.27
2019-03-01T19:30:55.730Z,11.83
2019-03-01T19:33:23.907Z,9.23
2019-03-01T19:35:52.097Z,10.20
2019-03-01T19:38:25.129Z,11.83
2019-03-01T19:40:52.803Z,9.97
2019-03-01T19:43:20.926Z,13.40
2019-03-01T19:45:49.417Z,10.87
2019-03-01T19:48:18.437Z,12.57
2019-03-01T19:50:48.410Z,10.23
2019-03-01T19:53:17.991Z,11.30
2019-03-01T19:55:47.319Z,10.77
2019-03-01T19:58:16.866Z,10.33
2019-03-01T20:00:45.078Z,8.53
2019-03-01T20:03:13.113Z,9.13
2019-03-01T20:05:41.304Z,10.80
2019-03-01T20:08:09.517Z,9.70
2019-03-01T20:10:37.704Z,8.60
2019-03-01T20:13:05.953Z,12.17
2019-03-01T20:15:35.312Z,8.43
2019-03-01T20:18:06.588Z,13.03
2019-03-01T20:20:34.372Z,8.40
2019-03-01T20:23:02.519Z,11.77
2019-03-01T20:25:31.595Z,8.87
2019-03-01T20:27:59.637Z,9.43
2019-03-01T20:30:30.129Z,6.70
2019-03-01T20:32:57.971Z,11.20
2019-03-01T20:35:26.266Z,13.03
2019-03-01T20:37:54.540Z,9.23
2019-03-01T20:40:26.496Z,12.03
2019-03-01T20:42:56.011Z,6.73
2019-03-01T20:45:26.021Z,10.37
2019-03-01T20:47:53.732Z,11.03
2019-03-01T20:50:22.651Z,8.67
2019-03-01T20:52:50.922Z,9.37
2019-03-01T20:55:19.076Z,11.33
2019-03-01T20:57:47.146Z,10.53
2019-03-01T21:00:15.632Z,11.07
2019-03-01T21:02:46.896Z,10.23
2019-03-01T21:05:13.489Z,10.27
2019-03-01T21:07:41.620Z,9.10
2019-03-01T21:10:12.576Z,12.43
2019-03-01T21:12:41.054Z,11.63
2019-03-01T21:15:09.287Z,12.43
2019-03-01T21:17:37.488Z,12.63
2019-03-01T21:20:06.455Z,9.80
2019-03-01T21:22:36.614Z,11.50
2019-03-01T21:25:04.647Z,18.80
2019-03-01T21:27:32.850Z,10.30
2019-03-01T21:30:01.112Z,11.20
2019-03-01T21:32:29.156Z,10.57
2019-03-01T21:34:57.250Z,14.30
2019-03-01T21:37:25.449Z,10.40
2019-03-01T21:39:55.648Z,9.20
2019-03-01T21:42:24.023Z,13.37
2019-03-01T21:44:52.496Z,13.73
2019-03-01T21:47:20.727Z,11.47
2019-03-01T21:49:48.912Z,12.47
2019-03-01T21:52:17.095Z,9.00
2019-03-01T21:54:48.477Z,13.27
2019-03-01T21:57:14.979Z,12.33
2019-03-01T21:59:43.074Z,11.60
2019-03-01T22:02:13.687Z,11.67
2019-03-01T22:04:41.169Z,11.27
2019-03-01T22:07:09.476Z,10.27
2019-03-01T22:09:37.512Z,12.13
2019-03-01T22:12:08.605Z,13.47
2019-03-01T22:14:36.636Z,14.40
2019-03-01T22:17:04.621Z,13.50
2019-03-01T22:19:33.633Z,13.17
2019-03-01T22:22:01.813Z,9.67
2019-03-01T22:24:29.803Z,10.43
2019-03-01T22:26:57.899Z,9.67
2019-03-01T22:29:26.908Z,11.17
2019-03-01T22:31:54.832Z,13.33
2019-03-01T22:34:22.956Z,13.70
2019-03-01T22:36:52.934Z,13.67
2019-03-01T22:39:21.167Z,12.37
2019-03-01T22:41:49.409Z,17.57
2019-03-01T22:44:17.492Z,10.47
2019-03-01T22:46:45.532Z,11.67
2019-03-01T22:49:15.856Z,14.40
2019-03-01T22:51:43.856Z,13.67
2019-03-01T22:54:14.750Z,18.23
2019-03-01T22:56:44.578Z,16.77
2019-03-01T22:59:11.971Z,16.07
2019-03-01T23:01:45.053Z,16.03
2019-03-01T23:04:13.197Z,15.83
2019-03-01T23:06:41.218Z,15.53
2019-03-01T23:09:12.930Z,18.13
2019-03-01T23:11:41.185Z,13.57
2019-03-01T23:14:09.181Z,12.83
2019-03-01T23:16:37.144Z,14.90
2019-03-01T23:19:05.199Z,13.00
2019-03-01T23:21:35.911Z,11.30
2019-03-01T23:24:02.937Z,13.48
2019-03-01T23:26:30.927Z,16.00
2019-03-01T23:28:58.933Z,11.87
2019-03-01T23:31:27.001Z,16.10
2019-03-01T23:33:55.069Z,12.23
2019-03-01T23:36:24.925Z,13.13
2019-03-01T23:38:52.735Z,13.47
2019-03-01T23:41:21.536Z,13.85
2019-03-01T23:43:50.438Z,11.10
2019-03-01T23:46:18.450Z,16.93
2019-03-01T23:48:48.844Z,12.57
2019-03-01T23:51:16.065Z,11.17
2019-03-01T23:53:44.119Z,11.20
2019-03-01T23:56:14.408Z,16.50
2019-03-01T23:58:42.405Z,10.30
